Airfield :
LOGIN :

Register | Disclaimer

   EN    FR    IT 

 










Legend :    VFR   Marginal VFR   IFR   Intensive IFR   Very Intensive IFR
Visi :
Ceiling :
>= 8 km
>= 3000ft
5 to 8 km
1000 to 3000 ft
1500m to 5 km
500 to 1000 ft
800 to 1500m
200 to 500 ft
< 800m
< 200 ft
Symbols :   Thunderstorms  Fog  Heavy snow  Heavy precipitations  Wind > 20 kt
SIGMETs :     Misc.  Thunderstorms  Icing  Turbulence  Mountain Waves  Volcanic Ashes







- Airport Elevation : 256 ft
- IATA code : CFR
- Download approach charts


LFRK - Caen

CURRENT METAR :
  • 182100Z AUTO 26011KT 9999 FEW047 OVC056 10/08 Q1023 TEMPO 26015G25KT 3000 RADZ BKN007

EXPIRED METARs :
  • 182030Z AUTO 27011KT 9999 BKN044 OVC056 10/08 Q1023 TEMPO 26015G25KT 3000 RADZ BKN007
  • 182000Z AUTO 27011KT 9999 BKN047 OVC080 10/08 Q1023 TEMPO 26015G25KT 3000 RADZ BKN007
  • 181930Z AUTO 26011KT CAVOK 10/08 Q1023 TEMPO 26015G25KT 3000 RADZ BKN007
  • 181900Z AUTO 26010KT 9999 FEW046 OVC076 09/07 Q1023 TEMPO RA
  • 181830Z AUTO 24010KT CAVOK 09/07 Q1024 TEMPO RA

TAF TAF LFRK
Valid from the 18 at 15:00 until the 19 at 00:00 UTC


181400Z 1815/1824 26010KT 9999 SCT030
TEMPO 1817/1821 5000 RA BKN015
BECMG 1821/1823 BKN015
TEMPO 1821/1824 3000 RADZ BKN007
PROB30
TEMPO 1821/1824 26015G25KT
Met : +33 2 31 26 68 11
No reported NOTAMs for that airfield.



MET'MAP, your aeronautical weather chart ! - Copyright ORBIFLY December 2007 - Disclaimer

ORBIFLY MET'MAP TEAM :

Programming & Development : Alexandra Zaïnal
Concept & Development : Baudouin d'Aumeries
Co-Development & Prog : Marc-Olivier Méhu
Technical & hardware support : Manuel Goepfert

Contact : metmap@orbifly.com




SOURCES & CREDITS :

   NOAA